HDAM

Djibouti-Ambouli Airport

Djibouti City, Djibouti
TAF HDAM 182300Z 1900/1924 VRB03KT 9999 SCT020 BKN030 TEMPO 1903/1906 PROB4O SHRA SCT020 BKN030 BECMG 1906/1912 08010KT SCT030
Issued Valid From Valid To
Oct-18 @ 23:00 UTC
(4 hours ago)
Oct-19 @ 00:00 UTC
(3 hours ago)
Oct-20 @ 00:00 UTC
(in 21 hours)
Oct-19 @ 00:00 to Oct-19 @ 06:00
TAF HDAM 182300Z 1900/1924 VRB03KT 9999 SCT020 BKN030
Wind Visibility Clouds
Variable at 3 knots 10,000+ meters
  • Scattered at 2,000' AGL
  • Broken at 3,000' AGL
Becoming Oct-19 @ 06:00 to Oct-20 @ 00:00
BECMG 1906/1912 08010KT SCT030
Wind Visibility Clouds
80° at 10 knots 10,000+ meters
  • Scattered at 3,000' AGL
TAF HDAM 182300Z 1900/1924 VRB03KT 9999 SCT020 BKN030 TEMPO 1903/1906 PROB4O SHRA SCT020 BKN030 BECMG 1906/1912 08010KT SCT030
Issued Oct-18 @ 23:00 UTC
(4 hours ago)
Valid From Oct-19 @ 00:00 UTC
(3 hours ago)
Valid To Oct-20 @ 00:00 UTC
(in 21 hours)
Oct-19 @ 00:00 - Oct-19 @ 06:00
Wind Visibility
Variable at 3 knots 10,000+ meters
Clouds
  • Scattered at 2,000' AGL
  • Broken at 3,000' AGL
Becoming Oct-19 @ 06:00 - Oct-20 @ 00:00
Wind Visibility
80° at 10 knots 10,000+ meters
Clouds
  • Scattered at 3,000' AGL